sensor_id;sensor_type;location;lat;lon;timestamp;P1;P2;P0
78408;PMS5003;67697;50.750;-3.270;2024-01-27T00:02:21;50;42;
78408;PMS5003;67697;50.750;-3.270;2024-01-27T00:04:47;47;40;
78408;PMS5003;67697;50.750;-3.270;2024-01-27T00:07:13;43;39;
78408;PMS5003;67697;50.750;-3.270;2024-01-27T00:09:38;50;45;
78408;PMS5003;67697;50.750;-3.270;2024-01-27T00:12:03;40;35;
78408;PMS5003;67697;50.750;-3.270;2024-01-27T00:14:29;44;39;
78408;PMS5003;67697;50.750;-3.270;2024-01-27T00:16:54;45;40;
78408;PMS5003;67697;50.750;-3.270;2024-01-27T00:19:20;40;38;
78408;PMS5003;67697;50.750;-3.270;2024-01-27T00:21:45;39;38;
78408;PMS5003;67697;50.750;-3.270;2024-01-27T00:24:10;43;39;
78408;PMS5003;67697;50.750;-3.270;2024-01-27T00:26:36;49;38;
78408;PMS5003;67697;50.750;-3.270;2024-01-27T00:29:01;43;35;
78408;PMS5003;67697;50.750;-3.270;2024-01-27T00:31:28;43;39;
78408;PMS5003;67697;50.750;-3.270;2024-01-27T00:33:52;35;31;
78408;PMS5003;67697;50.750;-3.270;2024-01-27T00:36:18;50;40;
78408;PMS5003;67697;50.750;-3.270;2024-01-27T00:38:43;41;34;
78408;PMS5003;67697;50.750;-3.270;2024-01-27T00:41:09;64;52;
78408;PMS5003;67697;50.750;-3.270;2024-01-27T00:43:35;45;41;
78408;PMS5003;67697;50.750;-3.270;2024-01-27T00:46:00;42;37;
78408;PMS5003;67697;50.750;-3.270;2024-01-27T00:48:26;44;37;
78408;PMS5003;67697;50.750;-3.270;2024-01-27T00:50:51;38;34;
78408;PMS5003;67697;50.750;-3.270;2024-01-27T00:53:16;42;37;
78408;PMS5003;67697;50.750;-3.270;2024-01-27T00:55:41;35;34;
78408;PMS5003;67697;50.750;-3.270;2024-01-27T00:58:07;34;33;
78408;PMS5003;67697;50.750;-3.270;2024-01-27T01:00:32;34;33;
78408;PMS5003;67697;50.750;-3.270;2024-01-27T01:02:57;49;43;
78408;PMS5003;67697;50.750;-3.270;2024-01-27T01:05:23;40;37;
78408;PMS5003;67697;50.750;-3.270;2024-01-27T01:07:48;49;44;
78408;PMS5003;67697;50.750;-3.270;2024-01-27T01:10:14;41;38;
78408;PMS5003;67697;50.750;-3.270;2024-01-27T01:12:40;36;35;
78408;PMS5003;67697;50.750;-3.270;2024-01-27T01:15:06;45;43;
78408;PMS5003;67697;50.750;-3.270;2024-01-27T01:17:30;48;40;
78408;PMS5003;67697;50.750;-3.270;2024-01-27T01:19:56;50;44;
78408;PMS5003;67697;50.750;-3.270;2024-01-27T01:22:22;40;36;
78408;PMS5003;67697;50.750;-3.270;2024-01-27T01:24:47;41;38;
78408;PMS5003;67697;50.750;-3.270;2024-01-27T01:27:13;45;42;
78408;PMS5003;67697;50.750;-3.270;2024-01-27T01:29:38;36;33;
78408;PMS5003;67697;50.750;-3.270;2024-01-27T01:32:04;51;44;
78408;PMS5003;67697;50.750;-3.270;2024-01-27T01:34:29;40;36;
78408;PMS5003;67697;50.750;-3.270;2024-01-27T01:36:54;44;36;
78408;PMS5003;67697;50.750;-3.270;2024-01-27T01:39:20;39;32;
78408;PMS5003;67697;50.750;-3.270;2024-01-27T01:41:45;34;29;
78408;PMS5003;67697;50.750;-3.270;2024-01-27T01:44:10;34;33;
78408;PMS5003;67697;50.750;-3.270;2024-01-27T01:46:36;47;30;
78408;PMS5003;67697;50.750;-3.270;2024-01-27T01:49:01;34;32;
78408;PMS5003;67697;50.750;-3.270;2024-01-27T01:51:27;31;30;
78408;PMS5003;67697;50.750;-3.270;2024-01-27T01:53:54;24;24;
78408;PMS5003;67697;50.750;-3.270;2024-01-27T01:56:18;35;28;
78408;PMS5003;67697;50.750;-3.270;2024-01-27T01:58:44;31;28;
78408;PMS5003;67697;50.750;-3.270;2024-01-27T02:01:09;24;23;
78408;PMS5003;67697;50.750;-3.270;2024-01-27T02:03:34;24;20;
78408;PMS5003;67697;50.750;-3.270;2024-01-27T02:06:05;24;20;
78408;PMS5003;67697;50.750;-3.270;2024-01-27T02:08:26;29;24;
78408;PMS5003;67697;50.750;-3.270;2024-01-27T02:10:52;34;27;
78408;PMS5003;67697;50.750;-3.270;2024-01-27T02:13:17;33;24;
78408;PMS5003;67697;50.750;-3.270;2024-01-27T02:15:43;34;29;
78408;PMS5003;67697;50.750;-3.270;2024-01-27T02:18:08;35;33;
78408;PMS5003;67697;50.750;-3.270;2024-01-27T02:20:34;30;26;
78408;PMS5003;67697;50.750;-3.270;2024-01-27T02:22:59;31;26;
78408;PMS5003;67697;50.750;-3.270;2024-01-27T02:25:24;24;22;
78408;PMS5003;67697;50.750;-3.270;2024-01-27T02:27:50;23;19;
78408;PMS5003;67697;50.750;-3.270;2024-01-27T02:30:15;23;21;
78408;PMS5003;67697;50.750;-3.270;2024-01-27T02:32:41;31;25;
78408;PMS5003;67697;50.750;-3.270;2024-01-27T02:35:06;21;18;
78408;PMS5003;67697;50.750;-3.270;2024-01-27T02:37:32;21;19;
78408;PMS5003;67697;50.750;-3.270;2024-01-27T02:39:58;18;16;
78408;PMS5003;67697;50.750;-3.270;2024-01-27T02:42:23;15;14;
78408;PMS5003;67697;50.750;-3.270;2024-01-27T02:44:48;16;15;
78408;PMS5003;67697;50.750;-3.270;2024-01-27T02:47:13;18;14;
78408;PMS5003;67697;50.750;-3.270;2024-01-27T02:49:39;14;12;
78408;PMS5003;67697;50.750;-3.270;2024-01-27T02:52:05;16;15;
78408;PMS5003;67697;50.750;-3.270;2024-01-27T02:54:31;11;11;
78408;PMS5003;67697;50.750;-3.270;2024-01-27T02:56:56;12;9;
78408;PMS5003;67697;50.750;-3.270;2024-01-27T02:59:21;20;16;
78408;PMS5003;67697;50.750;-3.270;2024-01-27T03:01:47;16;13;
78408;PMS5003;67697;50.750;-3.270;2024-01-27T03:04:13;16;16;
78408;PMS5003;67697;50.750;-3.270;2024-01-27T03:06:38;16;12;
78408;PMS5003;67697;50.750;-3.270;2024-01-27T03:09:04;9;5;
78408;PMS5003;67697;50.750;-3.270;2024-01-27T03:11:29;14;11;
78408;PMS5003;67697;50.750;-3.270;2024-01-27T03:13:55;9;8;
78408;PMS5003;67697;50.750;-3.270;2024-01-27T03:16:21;14;11;
78408;PMS5003;67697;50.750;-3.270;2024-01-27T03:18:47;9;9;
78408;PMS5003;67697;50.750;-3.270;2024-01-27T03:21:12;9;7;
78408;PMS5003;67697;50.750;-3.270;2024-01-27T03:23:38;12;11;
78408;PMS5003;67697;50.750;-3.270;2024-01-27T03:26:04;11;11;
78408;PMS5003;67697;50.750;-3.270;2024-01-27T03:28:29;15;12;
78408;PMS5003;67697;50.750;-3.270;2024-01-27T03:30:55;12;12;
78408;PMS5003;67697;50.750;-3.270;2024-01-27T03:33:20;15;12;
78408;PMS5003;67697;50.750;-3.270;2024-01-27T03:35:46;15;11;
78408;PMS5003;67697;50.750;-3.270;2024-01-27T03:38:12;15;9;
78408;PMS5003;67697;50.750;-3.270;2024-01-27T03:40:37;8;8;
78408;PMS5003;67697;50.750;-3.270;2024-01-27T03:43:03;12;9;
78408;PMS5003;67697;50.750;-3.270;2024-01-27T03:45:28;8;7;
78408;PMS5003;67697;50.750;-3.270;2024-01-27T03:47:54;5;5;
78408;PMS5003;67697;50.750;-3.270;2024-01-27T03:50:20;11;9;
78408;PMS5003;67697;50.750;-3.270;2024-01-27T03:52:45;9;8;
78408;PMS5003;67697;50.750;-3.270;2024-01-27T03:55:11;21;15;
78408;PMS5003;67697;50.750;-3.270;2024-01-27T03:57:37;9;8;
78408;PMS5003;67697;50.750;-3.270;2024-01-27T04:00:02;11;9;
78408;PMS5003;67697;50.750;-3.270;2024-01-27T04:02:28;10;8;
78408;PMS5003;67697;50.750;-3.270;2024-01-27T04:04:53;13;13;
78408;PMS5003;67697;50.750;-3.270;2024-01-27T04:07:19;13;10;
78408;PMS5003;67697;50.750;-3.270;2024-01-27T04:09:45;14;13;
78408;PMS5003;67697;50.750;-3.270;2024-01-27T04:12:09;10;10;
78408;PMS5003;67697;50.750;-3.270;2024-01-27T04:14:34;14;11;
78408;PMS5003;67697;50.750;-3.270;2024-01-27T04:16:59;14;11;
78408;PMS5003;67697;50.750;-3.270;2024-01-27T04:19:25;7;7;
78408;PMS5003;67697;50.750;-3.270;2024-01-27T04:21:52;7;5;
78408;PMS5003;67697;50.750;-3.270;2024-01-27T04:24:15;10;5;
78408;PMS5003;67697;50.750;-3.270;2024-01-27T04:26:41;8;7;
78408;PMS5003;67697;50.750;-3.270;2024-01-27T04:29:06;8;7;
78408;PMS5003;67697;50.750;-3.270;2024-01-27T04:31:32;11;9;
78408;PMS5003;67697;50.750;-3.270;2024-01-27T04:33:57;17;12;
78408;PMS5003;67697;50.750;-3.270;2024-01-27T04:36:25;14;12;
78408;PMS5003;67697;50.750;-3.270;2024-01-27T04:38:49;11;11;
78408;PMS5003;67697;50.750;-3.270;2024-01-27T04:41:14;13;9;
78408;PMS5003;67697;50.750;-3.270;2024-01-27T04:43:40;10;9;
78408;PMS5003;67697;50.750;-3.270;2024-01-27T04:46:05;12;12;
78408;PMS5003;67697;50.750;-3.270;2024-01-27T04:48:31;18;14;
78408;PMS5003;67697;50.750;-3.270;2024-01-27T04:50:56;11;11;
78408;PMS5003;67697;50.750;-3.270;2024-01-27T04:53:22;14;11;
78408;PMS5003;67697;50.750;-3.270;2024-01-27T04:55:48;9;9;
78408;PMS5003;67697;50.750;-3.270;2024-01-27T04:58:14;11;7;
78408;PMS5003;67697;50.750;-3.270;2024-01-27T05:00:39;7;7;
78408;PMS5003;67697;50.750;-3.270;2024-01-27T05:03:05;11;8;
78408;PMS5003;67697;50.750;-3.270;2024-01-27T05:05:30;7;7;
78408;PMS5003;67697;50.750;-3.270;2024-01-27T05:07:55;14;9;
78408;PMS5003;67697;50.750;-3.270;2024-01-27T05:10:21;9;9;
78408;PMS5003;67697;50.750;-3.270;2024-01-27T05:12:47;12;12;
78408;PMS5003;67697;50.750;-3.270;2024-01-27T05:15:13;9;9;
78408;PMS5003;67697;50.750;-3.270;2024-01-27T05:17:38;11;11;
78408;PMS5003;67697;50.750;-3.270;2024-01-27T05:20:04;6;5;
78408;PMS5003;67697;50.750;-3.270;2024-01-27T05:22:30;9;8;
78408;PMS5003;67697;50.750;-3.270;2024-01-27T05:24:55;8;8;
78408;PMS5003;67697;50.750;-3.270;2024-01-27T05:27:21;8;6;
78408;PMS5003;67697;50.750;-3.270;2024-01-27T05:29:47;9;5;
78408;PMS5003;67697;50.750;-3.270;2024-01-27T05:32:12;5;5;
78408;PMS5003;67697;50.750;-3.270;2024-01-27T05:34:37;6;4;
78408;PMS5003;67697;50.750;-3.270;2024-01-27T05:37:03;6;6;
78408;PMS5003;67697;50.750;-3.270;2024-01-27T05:39:28;11;6;
78408;PMS5003;67697;50.750;-3.270;2024-01-27T05:41:55;5;5;
78408;PMS5003;67697;50.750;-3.270;2024-01-27T05:44:20;9;5;
78408;PMS5003;67697;50.750;-3.270;2024-01-27T05:46:45;6;6;
78408;PMS5003;67697;50.750;-3.270;2024-01-27T05:49:10;6;6;
78408;PMS5003;67697;50.750;-3.270;2024-01-27T05:51:36;8;5;
78408;PMS5003;67697;50.750;-3.270;2024-01-27T05:54:01;12;7;
78408;PMS5003;67697;50.750;-3.270;2024-01-27T05:56:27;4;4;
78408;PMS5003;67697;50.750;-3.270;2024-01-27T05:58:53;6;5;
78408;PMS5003;67697;50.750;-3.270;2024-01-27T06:01:18;16;8;
78408;PMS5003;67697;50.750;-3.270;2024-01-27T06:03:44;17;12;
78408;PMS5003;67697;50.750;-3.270;2024-01-27T06:06:10;6;6;
78408;PMS5003;67697;50.750;-3.270;2024-01-27T06:08:35;13;8;
78408;PMS5003;67697;50.750;-3.270;2024-01-27T06:11:00;10;6;
78408;PMS5003;67697;50.750;-3.270;2024-01-27T06:13:26;11;8;
78408;PMS5003;67697;50.750;-3.270;2024-01-27T06:15:51;11;8;
78408;PMS5003;67697;50.750;-3.270;2024-01-27T06:18:17;13;5;
78408;PMS5003;67697;50.750;-3.270;2024-01-27T06:20:42;9;8;
78408;PMS5003;67697;50.750;-3.270;2024-01-27T06:23:08;6;6;
78408;PMS5003;67697;50.750;-3.270;2024-01-27T06:25:33;13;8;
78408;PMS5003;67697;50.750;-3.270;2024-01-27T06:27:58;12;8;
78408;PMS5003;67697;50.750;-3.270;2024-01-27T06:30:23;6;6;
78408;PMS5003;67697;50.750;-3.270;2024-01-27T06:32:49;9;4;
78408;PMS5003;67697;50.750;-3.270;2024-01-27T06:35:14;8;6;
78408;PMS5003;67697;50.750;-3.270;2024-01-27T06:37:40;10;5;
78408;PMS5003;67697;50.750;-3.270;2024-01-27T06:40:06;9;8;
78408;PMS5003;67697;50.750;-3.270;2024-01-27T06:42:31;9;8;
78408;PMS5003;67697;50.750;-3.270;2024-01-27T06:44:56;9;8;
78408;PMS5003;67697;50.750;-3.270;2024-01-27T06:47:21;10;5;
78408;PMS5003;67697;50.750;-3.270;2024-01-27T06:49:47;9;8;
78408;PMS5003;67697;50.750;-3.270;2024-01-27T06:52:13;8;8;
78408;PMS5003;67697;50.750;-3.270;2024-01-27T06:54:39;12;6;
78408;PMS5003;67697;50.750;-3.270;2024-01-27T06:57:04;9;5;
78408;PMS5003;67697;50.750;-3.270;2024-01-27T06:59:30;6;5;
78408;PMS5003;67697;50.750;-3.270;2024-01-27T07:01:55;10;6;
78408;PMS5003;67697;50.750;-3.270;2024-01-27T07:04:22;9;9;
78408;PMS5003;67697;50.750;-3.270;2024-01-27T07:06:47;13;10;
78408;PMS5003;67697;50.750;-3.270;2024-01-27T07:09:13;12;9;
78408;PMS5003;67697;50.750;-3.270;2024-01-27T07:11:38;10;9;
78408;PMS5003;67697;50.750;-3.270;2024-01-27T07:14:04;9;8;
78408;PMS5003;67697;50.750;-3.270;2024-01-27T07:16:30;8;6;
78408;PMS5003;67697;50.750;-3.270;2024-01-27T07:18:56;8;6;
78408;PMS5003;67697;50.750;-3.270;2024-01-27T07:21:21;12;10;
78408;PMS5003;67697;50.750;-3.270;2024-01-27T07:23:47;10;10;
78408;PMS5003;67697;50.750;-3.270;2024-01-27T07:26:13;9;8;
78408;PMS5003;67697;50.750;-3.270;2024-01-27T07:28:38;10;9;
78408;PMS5003;67697;50.750;-3.270;2024-01-27T07:31:04;8;8;
78408;PMS5003;67697;50.750;-3.270;2024-01-27T07:33:30;9;6;
78408;PMS5003;67697;50.750;-3.270;2024-01-27T07:35:56;10;9;
78408;PMS5003;67697;50.750;-3.270;2024-01-27T07:38:21;10;6;
78408;PMS5003;67697;50.750;-3.270;2024-01-27T07:40:47;8;5;
78408;PMS5003;67697;50.750;-3.270;2024-01-27T07:43:12;12;12;
78408;PMS5003;67697;50.750;-3.270;2024-01-27T07:45:38;10;10;
78408;PMS5003;67697;50.750;-3.270;2024-01-27T07:48:03;12;8;
78408;PMS5003;67697;50.750;-3.270;2024-01-27T07:50:29;9;8;
78408;PMS5003;67697;50.750;-3.270;2024-01-27T07:52:54;12;11;
78408;PMS5003;67697;50.750;-3.270;2024-01-27T07:55:20;18;12;
78408;PMS5003;67697;50.750;-3.270;2024-01-27T07:57:45;13;12;
78408;PMS5003;67697;50.750;-3.270;2024-01-27T08:00:11;20;13;
78408;PMS5003;67697;50.750;-3.270;2024-01-27T08:02:35;18;15;
78408;PMS5003;67697;50.750;-3.270;2024-01-27T08:05:02;19;16;
78408;PMS5003;67697;50.750;-3.270;2024-01-27T08:07:26;16;12;
78408;PMS5003;67697;50.750;-3.270;2024-01-27T08:09:51;20;19;
78408;PMS5003;67697;50.750;-3.270;2024-01-27T08:12:16;15;12;
78408;PMS5003;67697;50.750;-3.270;2024-01-27T08:14:42;15;12;
78408;PMS5003;67697;50.750;-3.270;2024-01-27T08:17:07;16;13;
78408;PMS5003;67697;50.750;-3.270;2024-01-27T08:19:33;8;8;
78408;PMS5003;67697;50.750;-3.270;2024-01-27T08:21:58;11;9;
78408;PMS5003;67697;50.750;-3.270;2024-01-27T08:24:24;13;12;
78408;PMS5003;67697;50.750;-3.270;2024-01-27T08:26:49;9;9;
78408;PMS5003;67697;50.750;-3.270;2024-01-27T08:29:15;11;9;
78408;PMS5003;67697;50.750;-3.270;2024-01-27T08:31:41;17;13;
78408;PMS5003;67697;50.750;-3.270;2024-01-27T08:34:07;17;9;
78408;PMS5003;67697;50.750;-3.270;2024-01-27T08:36:31;12;9;
78408;PMS5003;67697;50.750;-3.270;2024-01-27T08:38:57;9;9;
78408;PMS5003;67697;50.750;-3.270;2024-01-27T08:41:23;9;9;
78408;PMS5003;67697;50.750;-3.270;2024-01-27T08:43:48;16;12;
78408;PMS5003;67697;50.750;-3.270;2024-01-27T08:46:14;9;6;
78408;PMS5003;67697;50.750;-3.270;2024-01-27T08:48:40;9;8;
78408;PMS5003;67697;50.750;-3.270;2024-01-27T08:51:05;19;12;
78408;PMS5003;67697;50.750;-3.270;2024-01-27T08:53:31;12;12;
78408;PMS5003;67697;50.750;-3.270;2024-01-27T08:55:57;9;9;
78408;PMS5003;67697;50.750;-3.270;2024-01-27T08:58:22;13;12;
78408;PMS5003;67697;50.750;-3.270;2024-01-27T09:00:47;12;8;
78408;PMS5003;67697;50.750;-3.270;2024-01-27T09:03:13;17;14;
78408;PMS5003;67697;50.750;-3.270;2024-01-27T09:05:39;23;16;
78408;PMS5003;67697;50.750;-3.270;2024-01-27T09:08:04;19;12;
78408;PMS5003;67697;50.750;-3.270;2024-01-27T09:10:30;13;10;
78408;PMS5003;67697;50.750;-3.270;2024-01-27T09:12:55;22;16;
78408;PMS5003;67697;50.750;-3.270;2024-01-27T09:15:21;13;11;
78408;PMS5003;67697;50.750;-3.270;2024-01-27T09:17:46;13;9;
78408;PMS5003;67697;50.750;-3.270;2024-01-27T09:20:11;10;10;
78408;PMS5003;67697;50.750;-3.270;2024-01-27T09:22:37;11;11;
78408;PMS5003;67697;50.750;-3.270;2024-01-27T09:25:03;9;9;
78408;PMS5003;67697;50.750;-3.270;2024-01-27T09:27:28;14;13;
78408;PMS5003;67697;50.750;-3.270;2024-01-27T09:29:54;13;13;
78408;PMS5003;67697;50.750;-3.270;2024-01-27T09:32:20;13;9;
78408;PMS5003;67697;50.750;-3.270;2024-01-27T09:34:46;13;11;
78408;PMS5003;67697;50.750;-3.270;2024-01-27T09:37:11;11;10;
78408;PMS5003;67697;50.750;-3.270;2024-01-27T09:39:37;13;10;
78408;PMS5003;67697;50.750;-3.270;2024-01-27T09:42:03;12;12;
78408;PMS5003;67697;50.750;-3.270;2024-01-27T09:44:28;12;8;
78408;PMS5003;67697;50.750;-3.270;2024-01-27T09:46:53;12;7;
78408;PMS5003;67697;50.750;-3.270;2024-01-27T09:49:19;18;12;
78408;PMS5003;67697;50.750;-3.270;2024-01-27T09:51:44;8;7;
78408;PMS5003;67697;50.750;-3.270;2024-01-27T09:54:10;10;7;
78408;PMS5003;67697;50.750;-3.270;2024-01-27T09:56:36;5;5;
78408;PMS5003;67697;50.750;-3.270;2024-01-27T09:59:02;10;8;
78408;PMS5003;67697;50.750;-3.270;2024-01-27T10:01:27;3;3;
78408;PMS5003;67697;50.750;-3.270;2024-01-27T10:03:53;6;3;
78408;PMS5003;67697;50.750;-3.270;2024-01-27T10:06:18;3;3;
78408;PMS5003;67697;50.750;-3.270;2024-01-27T10:08:45;11;3;
78408;PMS5003;67697;50.750;-3.270;2024-01-27T10:11:10;6;3;
78408;PMS5003;67697;50.750;-3.270;2024-01-27T10:13:36;6;3;
78408;PMS5003;67697;50.750;-3.270;2024-01-27T10:16:02;3;3;
78408;PMS5003;67697;50.750;-3.270;2024-01-27T10:18:27;5;3;
78408;PMS5003;67697;50.750;-3.270;2024-01-27T10:20:53;2;2;
78408;PMS5003;67697;50.750;-3.270;2024-01-27T10:23:19;3;1;
78408;PMS5003;67697;50.750;-3.270;2024-01-27T10:25:45;2;1;
78408;PMS5003;67697;50.750;-3.270;2024-01-27T10:28:11;5;2;
78408;PMS5003;67697;50.750;-3.270;2024-01-27T10:30:37;2;2;
78408;PMS5003;67697;50.750;-3.270;2024-01-27T10:33:02;5;1;
78408;PMS5003;67697;50.750;-3.270;2024-01-27T10:35:28;2;0;
78408;PMS5003;67697;50.750;-3.270;2024-01-27T10:37:54;3;2;
78408;PMS5003;67697;50.750;-3.270;2024-01-27T10:40:19;4;2;
78408;PMS5003;67697;50.750;-3.270;2024-01-27T10:42:45;1;1;
78408;PMS5003;67697;50.750;-3.270;2024-01-27T10:45:11;3;1;
78408;PMS5003;67697;50.750;-3.270;2024-01-27T10:47:36;2;0;
78408;PMS5003;67697;50.750;-3.270;2024-01-27T10:50:02;6;2;
78408;PMS5003;67697;50.750;-3.270;2024-01-27T10:52:28;4;3;
78408;PMS5003;67697;50.750;-3.270;2024-01-27T10:54:55;2;0;
78408;PMS5003;67697;50.750;-3.270;2024-01-27T10:57:19;6;4;
78408;PMS5003;67697;50.750;-3.270;2024-01-27T10:59:45;6;4;
78408;PMS5003;67697;50.750;-3.270;2024-01-27T11:02:11;4;4;
78408;PMS5003;67697;50.750;-3.270;2024-01-27T11:04:36;6;4;
78408;PMS5003;67697;50.750;-3.270;2024-01-27T11:07:03;3;3;
78408;PMS5003;67697;50.750;-3.270;2024-01-27T11:09:28;8;6;
78408;PMS5003;67697;50.750;-3.270;2024-01-27T11:11:54;3;2;
78408;PMS5003;67697;50.750;-3.270;2024-01-27T11:14:19;4;2;
78408;PMS5003;67697;50.750;-3.270;2024-01-27T11:16:45;3;3;
78408;PMS5003;67697;50.750;-3.270;2024-01-27T11:19:11;8;4;
78408;PMS5003;67697;50.750;-3.270;2024-01-27T11:21:37;4;3;
78408;PMS5003;67697;50.750;-3.270;2024-01-27T11:26:27;6;3;
78408;PMS5003;67697;50.750;-3.270;2024-01-27T11:28:53;8;6;
78408;PMS5003;67697;50.750;-3.270;2024-01-27T11:31:19;2;2;
78408;PMS5003;67697;50.750;-3.270;2024-01-27T11:33:45;6;6;
78408;PMS5003;67697;50.750;-3.270;2024-01-27T11:36:18;3;3;
78408;PMS5003;67697;50.750;-3.270;2024-01-27T11:38:36;6;4;
78408;PMS5003;67697;50.750;-3.270;2024-01-27T11:41:01;3;2;
78408;PMS5003;67697;50.750;-3.270;2024-01-27T11:43:28;6;6;
78408;PMS5003;67697;50.750;-3.270;2024-01-27T11:45:56;8;4;
78408;PMS5003;67697;50.750;-3.270;2024-01-27T11:48:18;6;3;
78408;PMS5003;67697;50.750;-3.270;2024-01-27T11:50:44;3;3;
78408;PMS5003;67697;50.750;-3.270;2024-01-27T11:53:09;6;4;
78408;PMS5003;67697;50.750;-3.270;2024-01-27T11:55:35;6;3;
78408;PMS5003;67697;50.750;-3.270;2024-01-27T11:58:00;7;6;
78408;PMS5003;67697;50.750;-3.270;2024-01-27T12:00:26;4;3;
78408;PMS5003;67697;50.750;-3.270;2024-01-27T12:02:52;8;4;
78408;PMS5003;67697;50.750;-3.270;2024-01-27T12:05:18;9;8;
78408;PMS5003;67697;50.750;-3.270;2024-01-27T12:07:45;10;7;
78408;PMS5003;67697;50.750;-3.270;2024-01-27T12:10:09;8;7;
78408;PMS5003;67697;50.750;-3.270;2024-01-27T12:12:35;9;6;
78408;PMS5003;67697;50.750;-3.270;2024-01-27T12:15:00;9;6;
78408;PMS5003;67697;50.750;-3.270;2024-01-27T12:17:26;9;6;
78408;PMS5003;67697;50.750;-3.270;2024-01-27T12:19:52;6;2;
78408;PMS5003;67697;50.750;-3.270;2024-01-27T12:22:21;7;3;
78408;PMS5003;67697;50.750;-3.270;2024-01-27T12:24:43;10;7;
78408;PMS5003;67697;50.750;-3.270;2024-01-27T12:27:08;8;4;
78408;PMS5003;67697;50.750;-3.270;2024-01-27T12:29:34;6;4;
78408;PMS5003;67697;50.750;-3.270;2024-01-27T12:32:00;13;7;
78408;PMS5003;67697;50.750;-3.270;2024-01-27T12:34:25;6;3;
78408;PMS5003;67697;50.750;-3.270;2024-01-27T12:36:51;8;7;
78408;PMS5003;67697;50.750;-3.270;2024-01-27T12:39:16;3;3;
78408;PMS5003;67697;50.750;-3.270;2024-01-27T12:41:42;8;3;
78408;PMS5003;67697;50.750;-3.270;2024-01-27T12:44:07;4;2;
78408;PMS5003;67697;50.750;-3.270;2024-01-27T12:46:33;3;3;
78408;PMS5003;67697;50.750;-3.270;2024-01-27T12:48:59;10;6;
78408;PMS5003;67697;50.750;-3.270;2024-01-27T12:51:25;4;2;
78408;PMS5003;67697;50.750;-3.270;2024-01-27T12:53:50;3;2;
78408;PMS5003;67697;50.750;-3.270;2024-01-27T12:56:16;8;3;
78408;PMS5003;67697;50.750;-3.270;2024-01-27T12:58:42;4;4;
78408;PMS5003;67697;50.750;-3.270;2024-01-27T13:01:07;3;3;
78408;PMS5003;67697;50.750;-3.270;2024-01-27T13:03:33;4;3;
78408;PMS5003;67697;50.750;-3.270;2024-01-27T13:06:00;4;4;
78408;PMS5003;67697;50.750;-3.270;2024-01-27T13:08:24;4;3;
78408;PMS5003;67697;50.750;-3.270;2024-01-27T13:10:49;13;8;
78408;PMS5003;67697;50.750;-3.270;2024-01-27T13:13:15;4;4;
78408;PMS5003;67697;50.750;-3.270;2024-01-27T13:15:41;9;4;
78408;PMS5003;67697;50.750;-3.270;2024-01-27T13:18:06;5;3;
78408;PMS5003;67697;50.750;-3.270;2024-01-27T13:20:32;8;3;
78408;PMS5003;67697;50.750;-3.270;2024-01-27T13:22:58;7;4;
78408;PMS5003;67697;50.750;-3.270;2024-01-27T13:25:23;6;4;
78408;PMS5003;67697;50.750;-3.270;2024-01-27T13:27:49;2;2;
78408;PMS5003;67697;50.750;-3.270;2024-01-27T13:30:15;5;3;
78408;PMS5003;67697;50.750;-3.270;2024-01-27T13:32:41;5;5;
78408;PMS5003;67697;50.750;-3.270;2024-01-27T13:35:06;3;3;
78408;PMS5003;67697;50.750;-3.270;2024-01-27T13:37:32;4;2;
78408;PMS5003;67697;50.750;-3.270;2024-01-27T13:39:57;3;3;
78408;PMS5003;67697;50.750;-3.270;2024-01-27T13:42:23;2;2;
78408;PMS5003;67697;50.750;-3.270;2024-01-27T13:44:49;3;2;
78408;PMS5003;67697;50.750;-3.270;2024-01-27T13:47:15;6;3;
78408;PMS5003;67697;50.750;-3.270;2024-01-27T13:49:40;10;6;
78408;PMS5003;67697;50.750;-3.270;2024-01-27T13:52:06;4;4;
78408;PMS5003;67697;50.750;-3.270;2024-01-27T13:54:32;4;3;
78408;PMS5003;67697;50.750;-3.270;2024-01-27T13:56:58;3;3;
78408;PMS5003;67697;50.750;-3.270;2024-01-27T13:59:25;7;2;
78408;PMS5003;67697;50.750;-3.270;2024-01-27T14:01:49;3;3;
78408;PMS5003;67697;50.750;-3.270;2024-01-27T14:04:15;3;3;
78408;PMS5003;67697;50.750;-3.270;2024-01-27T14:06:40;6;4;
78408;PMS5003;67697;50.750;-3.270;2024-01-27T14:09:06;4;4;
78408;PMS5003;67697;50.750;-3.270;2024-01-27T14:11:31;3;2;
78408;PMS5003;67697;50.750;-3.270;2024-01-27T14:13:57;3;3;
78408;PMS5003;67697;50.750;-3.270;2024-01-27T14:16:22;8;4;
78408;PMS5003;67697;50.750;-3.270;2024-01-27T14:18:48;8;7;
78408;PMS5003;67697;50.750;-3.270;2024-01-27T14:21:14;6;6;
78408;PMS5003;67697;50.750;-3.270;2024-01-27T14:23:39;6;3;
78408;PMS5003;67697;50.750;-3.270;2024-01-27T14:26:05;9;4;
78408;PMS5003;67697;50.750;-3.270;2024-01-27T14:28:31;7;3;
78408;PMS5003;67697;50.750;-3.270;2024-01-27T14:30:57;6;3;
78408;PMS5003;67697;50.750;-3.270;2024-01-27T14:33:22;3;2;
78408;PMS5003;67697;50.750;-3.270;2024-01-27T14:35:48;4;3;
78408;PMS5003;67697;50.750;-3.270;2024-01-27T14:38:14;4;2;
78408;PMS5003;67697;50.750;-3.270;2024-01-27T14:40:41;4;2;
78408;PMS5003;67697;50.750;-3.270;2024-01-27T14:43:05;6;2;
78408;PMS5003;67697;50.750;-3.270;2024-01-27T14:45:31;3;3;
78408;PMS5003;67697;50.750;-3.270;2024-01-27T14:47:56;6;2;
78408;PMS5003;67697;50.750;-3.270;2024-01-27T14:50:22;2;2;
78408;PMS5003;67697;50.750;-3.270;2024-01-27T14:52:49;4;4;
78408;PMS5003;67697;50.750;-3.270;2024-01-27T14:55:14;2;2;
78408;PMS5003;67697;50.750;-3.270;2024-01-27T14:57:39;2;2;
78408;PMS5003;67697;50.750;-3.270;2024-01-27T15:00:05;3;2;
78408;PMS5003;67697;50.750;-3.270;2024-01-27T15:02:30;7;4;
78408;PMS5003;67697;50.750;-3.270;2024-01-27T15:04:56;3;2;
78408;PMS5003;67697;50.750;-3.270;2024-01-27T15:07:22;2;2;
78408;PMS5003;67697;50.750;-3.270;2024-01-27T15:09:47;4;2;
78408;PMS5003;67697;50.750;-3.270;2024-01-27T15:12:13;3;1;
78408;PMS5003;67697;50.750;-3.270;2024-01-27T15:14:39;2;2;
78408;PMS5003;67697;50.750;-3.270;2024-01-27T15:17:04;11;3;
78408;PMS5003;67697;50.750;-3.270;2024-01-27T15:19:30;10;6;
78408;PMS5003;67697;50.750;-3.270;2024-01-27T15:21:57;3;3;
78408;PMS5003;67697;50.750;-3.270;2024-01-27T15:24:21;2;2;
78408;PMS5003;67697;50.750;-3.270;2024-01-27T15:26:47;3;3;
78408;PMS5003;67697;50.750;-3.270;2024-01-27T15:29:13;3;3;
78408;PMS5003;67697;50.750;-3.270;2024-01-27T15:31:38;4;3;
78408;PMS5003;67697;50.750;-3.270;2024-01-27T15:34:04;4;3;
78408;PMS5003;67697;50.750;-3.270;2024-01-27T15:36:30;6;1;
78408;PMS5003;67697;50.750;-3.270;2024-01-27T15:38:55;4;3;
78408;PMS5003;67697;50.750;-3.270;2024-01-27T15:41:21;6;3;
78408;PMS5003;67697;50.750;-3.270;2024-01-27T15:43:47;3;2;
78408;PMS5003;67697;50.750;-3.270;2024-01-27T15:46:13;7;2;
78408;PMS5003;67697;50.750;-3.270;2024-01-27T15:48:38;6;4;
78408;PMS5003;67697;50.750;-3.270;2024-01-27T15:51:04;7;3;
78408;PMS5003;67697;50.750;-3.270;2024-01-27T15:53:30;3;2;
78408;PMS5003;67697;50.750;-3.270;2024-01-27T15:55:55;4;4;
78408;PMS5003;67697;50.750;-3.270;2024-01-27T15:58:21;6;3;
78408;PMS5003;67697;50.750;-3.270;2024-01-27T16:00:47;6;3;
78408;PMS5003;67697;50.750;-3.270;2024-01-27T16:03:12;3;2;
78408;PMS5003;67697;50.750;-3.270;2024-01-27T16:05:38;6;2;
78408;PMS5003;67697;50.750;-3.270;2024-01-27T16:08:04;8;4;
78408;PMS5003;67697;50.750;-3.270;2024-01-27T16:10:30;3;2;
78408;PMS5003;67697;50.750;-3.270;2024-01-27T16:12:55;7;3;